Time;durP1;ratioP1;P1;durP2;ratioP2;P2;SDS_P1;SDS_P2;PMS_P1;PMS_P2;Temp;Humidity;BMP_temperature;BMP_pressure;BME280_temperature;BME280_humidity;BME280_pressure;Samples;Min_cycle;Max_cycle;Signal;HPM_P1;HPM_P2
2023/01/01 00:00:13;;;;;;;0.00;0.00;;;6.50;99.90;;;;;;5023417;28;20572;-73
2023/01/01 00:02:41;;;;;;;0.47;0.47;;;6.50;99.90;;;;;;5031061;28;20034;-72
2023/01/01 00:05:07;;;;;;;1.75;0.93;;;6.40;99.90;;;;;;5026148;28;20111;-73
2023/01/01 00:07:33;;;;;;;0.00;0.00;;;6.50;99.90;;;;;;5025937;28;20439;-73
2023/01/01 00:12:45;;;;;;;0.10;0.10;;;6.40;99.90;;;;;;5021886;28;20919;-73
2023/01/01 00:15:12;;;;;;;0.90;0.57;;;6.30;99.90;;;;;;5026090;28;20029;-73
2023/01/01 00:17:38;;;;;;;0.00;0.00;;;6.30;99.90;;;;;;5027047;28;20037;-73
2023/01/01 00:20:04;;;;;;;0.32;0.32;;;6.20;99.90;;;;;;5024038;28;20049;-73
2023/01/01 00:22:31;;;;;;;0.00;0.00;;;6.20;99.90;;;;;;5032674;28;20079;-73
2023/01/01 00:24:57;;;;;;;0.00;0.00;;;6.20;99.90;;;;;;5024384;28;20029;-73
2023/01/01 00:27:23;;;;;;;0.33;0.27;;;6.20;99.90;;;;;;5023398;28;20920;-73
2023/01/01 00:29:49;;;;;;;0.30;0.30;;;6.20;99.90;;;;;;5024298;28;20025;-72
2023/01/01 00:32:15;;;;;;;0.67;0.20;;;6.10;99.90;;;;;;5026838;28;20048;-72
2023/01/01 00:34:40;;;;;;;0.10;0.10;;;6.20;99.90;;;;;;5028414;28;20681;-73
2023/01/01 00:37:07;;;;;;;0.47;0.47;;;6.20;99.90;;;;;;5028775;28;20028;-73
2023/01/01 00:39:33;;;;;;;0.00;0.00;;;6.10;99.90;;;;;;5030869;28;20663;-72
2023/01/01 00:42:00;;;;;;;0.00;0.00;;;6.10;99.90;;;;;;5035316;28;20021;-72
2023/01/01 00:44:26;;;;;;;0.00;0.00;;;6.10;99.90;;;;;;5028420;28;20022;-72
2023/01/01 00:46:53;;;;;;;0.00;0.00;;;6.00;99.90;;;;;;5028174;28;20024;-73
2023/01/01 00:49:19;;;;;;;;;;;5.90;99.90;;;;;;5032860;28;20450;-71
2023/01/01 00:51:45;;;;;;;0.00;0.00;;;5.90;99.90;;;;;;5027615;28;19912;-72
2023/01/01 00:54:12;;;;;;;0.10;0.10;;;5.90;99.90;;;;;;5029605;28;20076;-72
2023/01/01 00:56:37;;;;;;;;;;;5.90;99.90;;;;;;5028764;28;20048;-72
2023/01/01 00:59:03;;;;;;;0.00;0.00;;;5.90;99.90;;;;;;5031287;28;19952;-72
2023/01/01 01:01:33;;;;;;;0.10;0.10;;;5.90;99.90;;;;;;5025735;28;20018;-72
2023/01/01 01:04:04;;;;;;;0.30;0.30;;;6.10;99.90;;;;;;5032495;28;20462;-72
2023/01/01 01:06:32;;;;;;;0.00;0.00;;;6.10;99.90;;;;;;5030551;28;20118;-72
2023/01/01 01:08:58;;;;;;;0.00;0.00;;;6.10;99.90;;;;;;5027154;28;20033;-72
2023/01/01 01:11:24;;;;;;;0.10;0.10;;;6.20;99.90;;;;;;5039407;28;20017;-72
2023/01/01 01:13:54;;;;;;;0.00;0.00;;;6.30;99.90;;;;;;5027640;28;20493;-72
2023/01/01 01:16:27;;;;;;;0.00;0.00;;;6.40;99.90;;;;;;5018800;28;20029;-72
2023/01/01 01:19:00;;;;;;;0.00;0.00;;;6.40;99.90;;;;;;5030074;28;20167;-72
2023/01/01 01:21:29;;;;;;;0.17;0.17;;;6.30;99.90;;;;;;5019675;28;20144;-72
2023/01/01 01:24:03;;;;;;;0.00;0.00;;;6.20;99.90;;;;;;5030386;28;20025;-73
2023/01/01 01:26:31;;;;;;;0.00;0.00;;;6.20;99.90;;;;;;5040533;28;20482;-72
2023/01/01 01:28:58;;;;;;;0.00;0.00;;;6.20;99.90;;;;;;5024186;28;20083;-72
2023/01/01 01:31:28;;;;;;;0.00;0.00;;;6.10;99.90;;;;;;5035918;28;20105;-73
2023/01/01 01:33:57;;;;;;;0.63;0.63;;;6.20;99.90;;;;;;5025654;28;20018;-73
2023/01/01 01:36:24;;;;;;;0.00;0.00;;;6.10;99.90;;;;;;5028718;28;20088;-73
2023/01/01 01:38:51;;;;;;;0.00;0.00;;;6.10;99.90;;;;;;5027115;28;20021;-72
2023/01/01 01:41:21;;;;;;;0.00;0.00;;;6.10;99.90;;;;;;5043760;28;20455;-72
2023/01/01 01:44:02;;;;;;;0.00;0.00;;;6.10;99.90;;;;;;5023019;28;20108;-72
2023/01/01 01:46:37;;;;;;;0.00;0.00;;;6.00;99.90;;;;;;5026525;28;20017;-72
2023/01/01 01:49:14;;;;;;;0.03;0.03;;;5.90;99.90;;;;;;5032150;28;20036;-72
2023/01/01 01:51:42;;;;;;;0.00;0.00;;;5.90;99.90;;;;;;5023727;28;20021;-72
2023/01/01 01:54:18;;;;;;;0.52;0.32;;;5.80;99.90;;;;;;5029878;28;20036;-73
2023/01/01 01:56:50;;;;;;;0.00;0.00;;;5.80;99.90;;;;;;5030877;28;20009;-72
2023/01/01 01:59:25;;;;;;;0.00;0.00;;;5.80;99.90;;;;;;5024826;28;20028;-73
2023/01/01 02:01:55;;;;;;;0.17;0.17;;;5.70;99.90;;;;;;5024717;28;20045;-72
2023/01/01 02:04:22;;;;;;;0.30;0.30;;;5.60;99.90;;;;;;5027247;28;20060;-72
2023/01/01 02:06:51;;;;;;;0.00;0.00;;;5.60;99.90;;;;;;5030652;28;20091;-73
2023/01/01 02:09:17;;;;;;;0.10;0.10;;;5.50;99.90;;;;;;5028643;28;20025;-73
2023/01/01 02:11:44;;;;;;;0.00;0.00;;;5.40;99.90;;;;;;5024289;28;20083;-72
2023/01/01 02:14:10;;;;;;;0.00;0.00;;;5.50;99.90;;;;;;5028586;28;20126;-72
2023/01/01 02:16:36;;;;;;;0.65;0.47;;;5.40;99.90;;;;;;5022042;28;20064;-72
2023/01/01 02:19:36;;;;;;;0.00;0.00;;;5.50;99.90;;;;;;5032000;28;20075;-72
2023/01/01 02:22:19;;;;;;;0.00;0.00;;;5.40;99.90;;;;;;5043865;28;20164;-72
2023/01/01 02:24:59;;;;;;;1.27;0.80;;;5.40;99.90;;;;;;5027315;28;20033;-72
2023/01/01 02:27:40;;;;;;;0.20;0.20;;;5.40;99.90;;;;;;5020440;28;20029;-72
2023/01/01 02:30:08;;;;;;;0.00;0.00;;;5.40;99.90;;;;;;5043747;28;21032;-73
2023/01/01 02:32:39;;;;;;;0.00;0.00;;;5.30;99.90;;;;;;5031247;28;20534;-72
2023/01/01 02:38:08;;;;;;;0.20;0.20;;;5.20;99.90;;;;;;5020867;28;20028;-72
2023/01/01 02:40:40;;;;;;;0.00;0.00;;;5.10;99.90;;;;;;5023513;28;20106;-73
2023/01/01 02:43:06;;;;;;;0.00;0.00;;;5.10;99.90;;;;;;5027450;28;20040;-72
2023/01/01 02:45:35;;;;;;;0.32;0.32;;;5.10;99.90;;;;;;5023899;28;20025;-72
2023/01/01 02:48:25;;;;;;;0.28;0.28;;;5.10;99.90;;;;;;5024222;28;20022;-72
2023/01/01 02:50:56;;;;;;;0.00;0.00;;;5.00;99.90;;;;;;5016917;28;20047;-73
2023/01/01 02:53:35;;;;;;;0.00;0.00;;;5.00;99.90;;;;;;5023974;28;20036;-72
2023/01/01 02:56:06;;;;;;;0.00;0.00;;;5.00;99.90;;;;;;5037988;28;20401;-72
2023/01/01 03:01:59;;;;;;;0.15;0.15;;;5.00;99.90;;;;;;5014100;28;20031;-72
2023/01/01 03:04:38;;;;;;;0.00;0.00;;;4.90;99.90;;;;;;5026015;28;20029;-72
2023/01/01 03:07:22;;;;;;;0.10;0.10;;;4.90;99.90;;;;;;5027671;28;20129;-72
2023/01/01 03:10:14;;;;;;;0.00;0.00;;;4.90;99.90;;;;;;5029243;28;20013;-72
2023/01/01 03:13:20;;;;;;;0.00;0.00;;;4.90;99.90;;;;;;5029408;28;20036;-72
2023/01/01 03:15:59;;;;;;;0.00;0.00;;;4.90;99.90;;;;;;5025313;28;20021;-72
2023/01/01 03:18:32;;;;;;;0.00;0.00;;;4.90;99.90;;;;;;5023495;28;20104;-72
2023/01/01 03:21:02;;;;;;;0.00;0.00;;;4.90;99.90;;;;;;5029767;28;20033;-71
2023/01/01 03:23:46;;;;;;;0.38;0.38;;;4.90;99.90;;;;;;5021272;28;20910;-73
2023/01/01 03:26:14;;;;;;;0.38;0.38;;;4.90;99.90;;;;;;5022577;28;20025;-72
2023/01/01 03:28:53;;;;;;;0.05;0.05;;;4.90;99.90;;;;;;5026893;28;20052;-72
2023/01/01 03:31:24;;;;;;;0.00;0.00;;;4.90;99.90;;;;;;5025146;28;20071;-72
2023/01/01 03:34:09;;;;;;;0.00;0.00;;;4.90;99.90;;;;;;5024411;28;20102;-72
2023/01/01 03:36:43;;;;;;;0.00;0.00;;;4.90;99.90;;;;;;5029642;28;20033;-72
2023/01/01 03:39:23;;;;;;;0.00;0.00;;;4.90;99.90;;;;;;5023425;28;20033;-72
2023/01/01 03:42:08;;;;;;;0.85;0.85;;;5.00;99.90;;;;;;5027876;28;20078;-72
2023/01/01 03:44:45;;;;;;;0.05;0.05;;;5.00;99.90;;;;;;5030890;28;20021;-72
2023/01/01 03:47:11;;;;;;;0.25;0.25;;;5.00;99.90;;;;;;5030061;28;20029;-72
2023/01/01 03:49:39;;;;;;;0.20;0.20;;;5.00;99.90;;;;;;5017226;28;20026;-72
2023/01/01 03:52:30;;;;;;;1.35;1.25;;;5.00;99.90;;;;;;5029418;28;20379;-72
2023/01/01 03:55:11;;;;;;;0.00;0.00;;;5.00;99.90;;;;;;5020427;28;20370;-72
2023/01/01 03:57:57;;;;;;;0.00;0.00;;;4.90;99.90;;;;;;5022729;28;20024;-72
2023/01/01 04:00:54;;;;;;;0.00;0.00;;;5.00;99.90;;;;;;5033770;28;20049;-72
2023/01/01 04:03:25;;;;;;;1.15;0.45;;;4.90;99.90;;;;;;5023377;28;20054;-72
2023/01/01 04:05:50;;;;;;;0.00;0.00;;;4.90;99.90;;;;;;5023349;28;20025;-73
2023/01/01 04:08:17;;;;;;;0.00;0.00;;;4.90;99.90;;;;;;5026391;28;20021;-72
2023/01/01 04:10:58;;;;;;;0.00;0.00;;;4.90;99.90;;;;;;5025954;28;20035;-73
2023/01/01 04:13:24;;;;;;;0.32;0.32;;;4.90;99.90;;;;;;5021887;28;20096;-73
2023/01/01 04:15:50;;;;;;;0.00;0.00;;;4.90;99.90;;;;;;5017631;28;20101;-72
2023/01/01 04:18:17;;;;;;;0.00;0.00;;;4.90;99.90;;;;;;5032771;28;20247;-73
2023/01/01 04:20:44;;;;;;;0.38;0.38;;;4.90;99.90;;;;;;5024078;28;20398;-72
2023/01/01 04:23:15;;;;;;;;;;;5.00;99.90;;;;;;5025368;28;20029;-72
2023/01/01 04:25:41;;;;;;;0.00;0.00;;;5.00;99.90;;;;;;5031033;28;19912;-72
2023/01/01 04:28:07;;;;;;;0.00;0.00;;;5.00;99.90;;;;;;5016508;28;20027;-72
2023/01/01 04:30:32;;;;;;;0.00;0.00;;;5.00;99.90;;;;;;5026671;28;20032;-72
2023/01/01 04:32:58;;;;;;;0.00;0.00;;;5.00;99.90;;;;;;5025134;28;20020;-72
2023/01/01 04:35:29;;;;;;;0.00;0.00;;;5.00;99.90;;;;;;5021027;28;20025;-71
2023/01/01 04:38:01;;;;;;;0.00;0.00;;;5.00;99.90;;;;;;5029255;28;20096;-72
2023/01/01 04:40:28;;;;;;;0.28;0.28;;;5.00;99.90;;;;;;5022524;28;20057;-72
2023/01/01 04:42:55;;;;;;;;;;;5.00;99.90;;;;;;5027308;28;20017;-73
2023/01/01 04:45:21;;;;;;;0.00;0.00;;;4.90;99.90;;;;;;5033432;28;19959;-72
2023/01/01 04:47:49;;;;;;;0.00;0.00;;;5.00;99.90;;;;;;5020023;28;20038;-72
2023/01/01 04:50:14;;;;;;;0.00;0.00;;;4.90;99.90;;;;;;5039574;28;20534;-71
2023/01/01 04:52:41;;;;;;;0.00;0.00;;;5.00;99.90;;;;;;5028879;28;20022;-72
2023/01/01 04:55:07;;;;;;;;;;;4.90;99.90;;;;;;5028177;28;20087;-73
2023/01/01 04:57:34;;;;;;;0.00;0.00;;;5.00;99.90;;;;;;5019557;28;20655;-73
2023/01/01 05:00:00;;;;;;;;;;;5.00;99.90;;;;;;5029355;28;20028;-72
2023/01/01 05:02:26;;;;;;;0.03;0.03;;;5.00;99.90;;;;;;5031237;28;19988;-73
2023/01/01 05:04:53;;;;;;;0.00;0.00;;;5.10;99.90;;;;;;5024406;28;20025;-72
2023/01/01 05:07:19;;;;;;;;;;;5.00;99.90;;;;;;5032473;28;20025;-72
2023/01/01 05:09:45;;;;;;;0.00;0.00;;;5.00;99.90;;;;;;5040569;28;19999;-73
2023/01/01 05:12:14;;;;;;;0.00;0.00;;;5.10;99.90;;;;;;5033628;28;20155;-72
2023/01/01 05:14:41;;;;;;;0.00;0.00;;;5.10;99.90;;;;;;5026259;28;20888;-71
2023/01/01 05:17:06;;;;;;;;;;;5.10;99.90;;;;;;5028234;28;20661;-72
2023/01/01 05:19:32;;;;;;;0.00;0.00;;;5.10;99.90;;;;;;5021033;28;19955;-72
2023/01/01 05:21:59;;;;;;;0.00;0.00;;;5.20;99.90;;;;;;5027935;28;20072;-72
2023/01/01 05:24:24;;;;;;;;;;;5.10;99.90;;;;;;5029903;28;20029;-72
2023/01/01 05:26:50;;;;;;;0.00;0.00;;;5.10;99.90;;;;;;5020824;28;19911;-72
2023/01/01 05:29:16;;;;;;;0.00;0.00;;;5.10;99.90;;;;;;5027821;28;20131;-72
2023/01/01 05:31:43;;;;;;;0.00;0.00;;;5.10;99.90;;;;;;5027496;28;20041;-72
2023/01/01 05:34:09;;;;;;;0.00;0.00;;;5.20;99.90;;;;;;5023965;28;20151;-72
2023/01/01 05:36:37;;;;;;;0.00;0.00;;;5.20;99.90;;;;;;5029225;28;20131;-72
2023/01/01 05:39:05;;;;;;;0.00;0.00;;;5.20;99.90;;;;;;5028479;28;20049;-72
2023/01/01 05:41:35;;;;;;;0.00;0.00;;;5.20;99.90;;;;;;5024726;28;20628;-72
2023/01/01 05:44:02;;;;;;;0.00;0.00;;;5.30;99.90;;;;;;5022631;28;20025;-72
2023/01/01 05:46:27;;;;;;;0.00;0.00;;;5.30;99.90;;;;;;5027266;28;20573;-72
2023/01/01 05:48:55;;;;;;;0.00;0.00;;;5.40;99.90;;;;;;5025828;28;20029;-72
2023/01/01 05:51:26;;;;;;;0.03;0.03;;;5.40;99.90;;;;;;5020939;28;20013;-72
2023/01/01 05:53:54;;;;;;;0.00;0.00;;;5.40;99.90;;;;;;5018453;28;20021;-72
2023/01/01 05:56:22;;;;;;;0.00;0.00;;;5.40;99.90;;;;;;5022281;28;20478;-72
2023/01/01 05:58:48;;;;;;;0.00;0.00;;;5.40;99.90;;;;;;5026793;28;20022;-72
2023/01/01 06:01:25;;;;;;;0.00;0.00;;;5.40;99.90;;;;;;5027900;28;20474;-72
2023/01/01 06:03:54;;;;;;;0.00;0.00;;;5.40;99.90;;;;;;5031209;28;20290;-72
2023/01/01 06:06:24;;;;;;;0.00;0.00;;;5.40;99.90;;;;;;5022678;28;20029;-72
2023/01/01 06:09:00;;;;;;;0.00;0.00;;;5.40;99.90;;;;;;5025797;28;20386;-72
2023/01/01 06:11:29;;;;;;;0.00;0.00;;;5.40;99.90;;;;;;5019818;28;20031;-72
2023/01/01 06:13:57;;;;;;;0.10;0.10;;;5.40;99.90;;;;;;5024397;28;20017;-72
2023/01/01 06:16:27;;;;;;;0.00;0.00;;;5.40;99.90;;;;;;5031080;28;20017;-72
2023/01/01 06:18:53;;;;;;;0.00;0.00;;;5.40;99.90;;;;;;5026756;28;20021;-72
2023/01/01 06:21:21;;;;;;;0.00;0.00;;;5.40;99.90;;;;;;5031706;28;20028;-72
2023/01/01 06:23:47;;;;;;;0.00;0.00;;;5.40;99.90;;;;;;5027197;28;20057;-72
2023/01/01 06:26:19;;;;;;;0.00;0.00;;;5.40;99.90;;;;;;5027569;28;20056;-72
2023/01/01 06:28:46;;;;;;;0.00;0.00;;;5.50;99.90;;;;;;5024022;28;21339;-72
2023/01/01 06:31:17;;;;;;;0.03;0.03;;;5.40;99.90;;;;;;5026336;28;20489;-72
2023/01/01 06:33:44;;;;;;;0.00;0.00;;;5.40;99.90;;;;;;5031693;28;20043;-72
2023/01/01 06:36:12;;;;;;;0.00;0.00;;;5.40;99.90;;;;;;5026595;28;20044;-72
2023/01/01 06:38:40;;;;;;;0.00;0.00;;;5.40;99.90;;;;;;5024907;28;20056;-72
2023/01/01 06:41:11;;;;;;;0.00;0.00;;;5.40;99.90;;;;;;5029351;28;20033;-72
2023/01/01 06:43:37;;;;;;;0.00;0.00;;;5.40;99.90;;;;;;5025598;28;20037;-72
2023/01/01 06:46:15;;;;;;;0.05;0.05;;;5.40;99.90;;;;;;5031084;28;20021;-72
2023/01/01 06:48:44;;;;;;;0.00;0.00;;;5.40;99.90;;;;;;5043606;28;20056;-72
2023/01/01 06:51:19;;;;;;;0.00;0.00;;;5.40;99.90;;;;;;5031765;28;20623;-72
2023/01/01 06:53:47;;;;;;;0.05;0.05;;;5.50;99.90;;;;;;5024089;28;20029;-73
2023/01/01 06:56:12;;;;;;;0.00;0.00;;;5.40;99.90;;;;;;5022611;28;20074;-72
2023/01/01 06:58:41;;;;;;;0.00;0.00;;;5.40;99.90;;;;;;5029257;28;20029;-71
2023/01/01 07:01:18;;;;;;;0.00;0.00;;;5.40;99.90;;;;;;5028524;28;20037;-72
2023/01/01 07:04:02;;;;;;;0.00;0.00;;;5.50;99.90;;;;;;5030528;28;20029;-72
2023/01/01 07:06:29;;;;;;;0.00;0.00;;;5.50;99.90;;;;;;5027672;28;20054;-72
2023/01/01 07:08:56;;;;;;;0.00;0.00;;;5.50;99.90;;;;;;5025595;28;20113;-72
2023/01/01 07:11:22;;;;;;;;;;;5.60;99.90;;;;;;5020441;28;20033;-72
2023/01/01 07:13:47;;;;;;;0.17;0.17;;;5.60;99.90;;;;;;5026401;28;19909;-72
2023/01/01 07:16:14;;;;;;;0.10;0.10;;;5.70;99.90;;;;;;5024654;28;20026;-72
2023/01/01 07:18:41;;;;;;;0.00;0.00;;;5.70;99.90;;;;;;5022938;28;20051;-72
2023/01/01 07:21:22;;;;;;;0.10;0.10;;;5.80;99.90;;;;;;5026448;28;21433;-71
2023/01/01 07:23:47;;;;;;;0.00;0.00;;;5.90;99.90;;;;;;5024121;28;20105;-73
2023/01/01 07:26:15;;;;;;;0.00;0.00;;;5.90;99.90;;;;;;5021538;28;20096;-72
2023/01/01 07:28:41;;;;;;;0.00;0.00;;;6.00;99.90;;;;;;5029856;28;20477;-72
2023/01/01 07:31:09;;;;;;;0.43;0.43;;;6.10;99.90;;;;;;5022554;28;20029;-72
2023/01/01 07:33:35;;;;;;;0.00;0.00;;;6.20;99.90;;;;;;5028049;28;20029;-72
2023/01/01 07:36:01;;;;;;;0.00;0.00;;;6.30;99.90;;;;;;5026491;28;20026;-72
2023/01/01 07:38:29;;;;;;;;;;;6.50;99.90;;;;;;5024957;28;20021;-72
2023/01/01 07:40:56;;;;;;;0.00;0.00;;;6.50;99.90;;;;;;5029631;28;20016;-72
2023/01/01 07:43:23;;;;;;;0.00;0.00;;;6.70;99.90;;;;;;5034862;28;20504;-72
2023/01/01 07:45:52;;;;;;;0.00;0.00;;;6.90;99.90;;;;;;5022304;28;20083;-72
2023/01/01 07:48:19;;;;;;;0.00;0.00;;;7.10;99.90;;;;;;5027802;28;20049;-72
2023/01/01 07:50:45;;;;;;;;;;;7.40;99.90;;;;;;5025323;28;20253;-72
2023/01/01 07:53:11;;;;;;;0.45;0.45;;;7.50;99.90;;;;;;5044825;28;19983;-73
2023/01/01 07:55:39;;;;;;;0.00;0.00;;;7.70;99.90;;;;;;5022687;28;20067;-73
2023/01/01 07:58:04;;;;;;;0.00;0.00;;;7.90;99.90;;;;;;5023565;28;20029;-73
2023/01/01 08:00:35;;;;;;;0.67;0.67;;;8.10;99.90;;;;;;5021780;28;20028;-72
2023/01/01 08:03:01;;;;;;;0.00;0.00;;;8.20;99.90;;;;;;5026327;28;20107;-72
2023/01/01 08:05:28;;;;;;;0.00;0.00;;;8.20;99.90;;;;;;5023173;28;20096;-73
2023/01/01 08:08:01;;;;;;;0.00;0.00;;;8.20;99.90;;;;;;5024950;28;20057;-73
2023/01/01 08:10:30;;;;;;;0.00;0.00;;;8.20;99.90;;;;;;5023862;28;20531;-72
2023/01/01 08:13:04;;;;;;;0.43;0.43;;;8.30;99.90;;;;;;5023314;28;20434;-73
2023/01/01 08:15:31;;;;;;;0.00;0.00;;;8.40;99.90;;;;;;5016140;28;20022;-72
2023/01/01 08:17:58;;;;;;;0.00;0.00;;;8.50;99.90;;;;;;5028553;28;20025;-73
2023/01/01 08:20:24;;;;;;;0.00;0.00;;;8.80;99.90;;;;;;5028468;28;20040;-72
2023/01/01 08:22:51;;;;;;;0.00;0.00;;;9.00;99.90;;;;;;5029329;28;20021;-72
2023/01/01 08:25:16;;;;;;;;;;;9.00;99.90;;;;;;5029360;28;20029;-73
2023/01/01 08:27:46;;;;;;;0.10;0.10;;;9.00;99.90;;;;;;5023382;28;19905;-72
2023/01/01 08:30:21;;;;;;;0.00;0.00;;;9.10;99.90;;;;;;5035573;28;20033;-73
2023/01/01 08:32:47;;;;;;;0.00;0.00;;;9.20;99.90;;;;;;5044255;28;20014;-73
2023/01/01 08:35:13;;;;;;;0.00;0.00;;;9.60;99.90;;;;;;5032111;28;20101;-73
2023/01/01 08:37:39;;;;;;;0.00;0.00;;;10.10;99.90;;;;;;5034178;28;20603;-73
2023/01/01 08:40:05;;;;;;;0.00;0.00;;;10.90;99.90;;;;;;5032362;28;20053;-72
2023/01/01 08:42:31;;;;;;;0.00;0.00;;;12.20;99.90;;;;;;5036716;28;20054;-73
2023/01/01 08:44:57;;;;;;;0.00;0.00;;;13.10;99.90;;;;;;5037570;28;20024;-73
2023/01/01 08:47:25;;;;;;;0.00;0.00;;;14.40;99.90;;;;;;5039648;28;20083;-73
2023/01/01 08:49:52;;;;;;;0.00;0.00;;;14.90;99.90;;;;;;5027467;28;20028;-73
2023/01/01 08:52:18;;;;;;;0.00;0.00;;;15.20;99.90;;;;;;5028431;28;20029;-73
2023/01/01 08:54:44;;;;;;;;;;;16.30;99.90;;;;;;5034019;28;20033;-73
2023/01/01 08:57:10;;;;;;;1.35;0.22;;;16.30;99.90;;;;;;5042960;28;19919;-72
2023/01/01 08:59:36;;;;;;;1.13;0.43;;;15.80;99.90;;;;;;5033191;28;20033;-73
2023/01/01 09:02:05;;;;;;;0.20;0.15;;;15.40;99.90;;;;;;5027132;28;20033;-72
2023/01/01 09:04:33;;;;;;;0.00;0.00;;;14.70;99.90;;;;;;5029611;28;20489;-73
2023/01/01 09:07:02;;;;;;;0.32;0.32;;;14.80;99.90;;;;;;5027463;28;20033;-73
2023/01/01 09:09:29;;;;;;;0.00;0.00;;;14.00;99.90;;;;;;5021645;28;20022;-73
2023/01/01 09:11:57;;;;;;;;;;;13.90;99.90;;;;;;5028721;28;20045;-73
2023/01/01 09:14:23;;;;;;;0.00;0.00;;;14.10;99.90;;;;;;5041523;28;19959;-73
2023/01/01 09:16:50;;;;;;;0.00;0.00;;;13.70;99.90;;;;;;5043973;28;20044;-73
2023/01/01 09:19:22;;;;;;;1.10;0.55;;;13.30;99.90;;;;;;5028678;28;20029;-72
2023/01/01 09:21:47;;;;;;;0.45;0.45;;;12.40;99.90;;;;;;5031618;28;20478;-72
2023/01/01 09:24:13;;;;;;;1.60;0.73;;;13.50;99.90;;;;;;5024516;28;20079;-73
2023/01/01 09:26:40;;;;;;;1.30;1.20;;;15.90;99.90;;;;;;5025347;28;20040;-73
2023/01/01 09:29:06;;;;;;;;;;;16.80;99.90;;;;;;5033499;28;20032;-73
2023/01/01 09:31:32;;;;;;;0.85;0.28;;;16.00;99.90;;;;;;5032622;28;20296;-73
2023/01/01 09:33:57;;;;;;;0.00;0.00;;;15.90;99.90;;;;;;5036853;28;20033;-73
2023/01/01 09:36:23;;;;;;;0.07;0.07;;;17.30;99.90;;;;;;5029149;28;20711;-73
2023/01/01 09:38:50;;;;;;;0.10;0.10;;;18.00;99.90;;;;;;5018759;28;20018;-73
2023/01/01 09:41:32;;;;;;;0.00;0.00;;;19.30;97.50;;;;;;5025133;28;20433;-72
2023/01/01 09:44:20;;;;;;;0.22;0.20;;;19.70;93.70;;;;;;5028975;28;20720;-73
2023/01/01 09:46:53;;;;;;;0.00;0.00;;;18.80;94.10;;;;;;5029815;28;20497;-73
2023/01/01 09:49:36;;;;;;;0.20;0.20;;;18.50;96.30;;;;;;5031332;28;20025;-73
2023/01/01 09:52:04;;;;;;;0.00;0.00;;;20.50;93.90;;;;;;5027736;28;20085;-73
2023/01/01 09:54:59;;;;;;;0.00;0.00;;;21.90;86.10;;;;;;5029544;28;20447;-73
2023/01/01 09:57:31;;;;;;;0.00;0.00;;;22.90;74.40;;;;;;5042127;28;20020;-73
2023/01/01 09:59:59;;;;;;;0.25;0.25;;;23.00;74.40;;;;;;5031204;28;20033;-73
2023/01/01 10:02:49;;;;;;;0.00;0.00;;;21.50;78.00;;;;;;5021627;28;20136;-72
2023/01/01 10:05:32;;;;;;;0.20;0.20;;;21.10;80.00;;;;;;5019523;28;20099;-72
2023/01/01 10:08:27;;;;;;;0.00;0.00;;;22.40;76.50;;;;;;5023729;28;20021;-73
2023/01/01 10:10:59;;;;;;;0.00;0.00;;;23.50;72.40;;;;;;5017446;28;20323;-73
2023/01/01 10:13:42;;;;;;;2.30;0.35;;;24.10;67.70;;;;;;5031625;28;20013;-73
2023/01/01 10:16:19;;;;;;;0.00;0.00;;;22.40;69.60;;;;;;5028789;28;20106;-73
2023/01/01 10:18:51;;;;;;;0.10;0.08;;;21.30;73.40;;;;;;5028843;28;20031;-73
2023/01/01 10:21:29;;;;;;;0.52;0.52;;;20.60;76.80;;;;;;5023333;28;20099;-73
2023/01/01 10:23:59;;;;;;;0.57;0.35;;;19.80;79.80;;;;;;5026493;28;20477;-73
2023/01/01 10:26:28;;;;;;;0.20;0.20;;;19.00;84.00;;;;;;5037063;28;20032;-73
2023/01/01 10:29:00;;;;;;;0.00;0.00;;;18.40;89.20;;;;;;5021946;28;20029;-73
2023/01/01 10:31:38;;;;;;;0.00;0.00;;;20.20;87.90;;;;;;5027725;28;20532;-73
2023/01/01 10:34:27;;;;;;;0.08;0.08;;;21.20;79.00;;;;;;5029932;28;20907;-72
2023/01/01 10:36:58;;;;;;;0.30;0.10;;;20.90;78.40;;;;;;5016831;28;20548;-72
2023/01/01 10:39:25;;;;;;;0.00;0.00;;;20.70;80.10;;;;;;5021029;28;20099;-72
2023/01/01 10:41:52;;;;;;;1.65;0.22;;;19.70;81.70;;;;;;5023212;28;20025;-72
2023/01/01 10:44:28;;;;;;;0.10;0.10;;;19.20;85.10;;;;;;5019719;28;20116;-72
2023/01/01 10:46:57;;;;;;;0.00;0.00;;;18.80;89.20;;;;;;5025080;28;20498;-72
2023/01/01 10:49:23;;;;;;;0.00;0.00;;;20.20;84.60;;;;;;5015660;28;20121;-73
2023/01/01 10:51:51;;;;;;;0.10;0.10;;;21.30;78.20;;;;;;5020315;28;20703;-72
2023/01/01 10:54:36;;;;;;;0.00;0.00;;;21.50;77.60;;;;;;5026224;28;20029;-73
2023/01/01 10:57:36;;;;;;;0.10;0.10;;;23.10;71.40;;;;;;5020322;28;20092;-73
2023/01/01 11:00:19;;;;;;;0.00;0.00;;;20.80;74.10;;;;;;5023537;28;20485;-72
2023/01/01 11:02:45;;;;;;;0.28;0.28;;;20.10;76.60;;;;;;5038143;28;20021;-73
2023/01/01 11:05:16;;;;;;;0.00;0.00;;;18.20;85.30;;;;;;5031494;28;20068;-73
2023/01/01 11:07:42;;;;;;;0.13;0.13;;;16.50;94.00;;;;;;5029225;28;20100;-73
2023/01/01 11:10:20;;;;;;;0.00;0.00;;;15.70;98.80;;;;;;5023301;28;20494;-72
2023/01/01 11:12:53;;;;;;;0.00;0.00;;;15.40;99.90;;;;;;5018100;28;20049;-73
2023/01/01 11:15:30;;;;;;;0.00;0.00;;;15.10;99.90;;;;;;5020902;28;20024;-73
2023/01/01 11:18:13;;;;;;;0.22;0.22;;;14.80;99.90;;;;;;5021226;28;20021;-73
2023/01/01 11:20:40;;;;;;;0.00;0.00;;;14.80;99.90;;;;;;5017052;28;20091;-73
2023/01/01 11:23:31;;;;;;;0.10;0.10;;;14.20;99.90;;;;;;5033367;28;20052;-73
2023/01/01 11:26:17;;;;;;;0.00;0.00;;;13.80;99.90;;;;;;5022521;28;20031;-72
2023/01/01 11:29:17;;;;;;;0.13;0.13;;;13.50;99.90;;;;;;5025095;28;21370;-73
2023/01/01 11:31:46;;;;;;;0.10;0.10;;;13.40;99.90;;;;;;5025769;28;20033;-73
2023/01/01 11:34:35;;;;;;;0.00;0.00;;;13.60;99.90;;;;;;5021894;28;20036;-73
2023/01/01 11:37:18;;;;;;;0.15;0.15;;;13.60;99.90;;;;;;5021839;28;21760;-72
2023/01/01 11:39:47;;;;;;;0.25;0.25;;;13.80;99.90;;;;;;5040299;28;20024;-72
2023/01/01 11:42:46;;;;;;;0.00;0.00;;;13.80;99.90;;;;;;5039204;28;20482;-73
2023/01/01 11:45:11;;;;;;;0.10;0.10;;;13.50;99.90;;;;;;5025487;28;20120;-73
2023/01/01 11:47:39;;;;;;;0.17;0.17;;;13.30;99.90;;;;;;5026247;28;20112;-73
2023/01/01 11:50:20;;;;;;;0.10;0.10;;;12.90;99.90;;;;;;5029181;28;20029;-72
2023/01/01 11:52:51;;;;;;;0.00;0.00;;;12.70;99.90;;;;;;5027032;28;20045;-73
2023/01/01 11:55:36;;;;;;;0.00;0.00;;;12.80;99.90;;;;;;5021957;28;20032;-72
2023/01/01 11:58:15;;;;;;;0.00;0.00;;;12.90;99.90;;;;;;5025595;28;20024;-73
2023/01/01 12:00:40;;;;;;;0.00;0.00;;;12.80;99.90;;;;;;5021668;28;20021;-72
2023/01/01 12:03:22;;;;;;;0.38;0.38;;;12.70;99.90;;;;;;5029184;28;20037;-73
2023/01/01 12:05:59;;;;;;;0.00;0.00;;;12.60;99.90;;;;;;5028711;28;20609;-73
2023/01/01 12:08:40;;;;;;;0.10;0.10;;;12.50;99.90;;;;;;5026446;28;20029;-73
2023/01/01 12:11:10;;;;;;;0.08;0.08;;;12.50;99.90;;;;;;5022011;28;20034;-72
2023/01/01 12:13:52;;;;;;;0.00;0.00;;;12.50;99.90;;;;;;5032284;28;20974;-73
2023/01/01 12:16:26;;;;;;;0.15;0.15;;;12.50;99.90;;;;;;5027393;28;20032;-72
2023/01/01 12:19:05;;;;;;;0.00;0.00;;;12.70;99.90;;;;;;5028449;28;20017;-72
2023/01/01 12:21:34;;;;;;;0.35;0.10;;;12.90;99.90;;;;;;5016784;28;20040;-73
2023/01/01 12:24:00;;;;;;;0.20;0.17;;;12.80;99.90;;;;;;5030770;28;20021;-72
2023/01/01 12:27:13;;;;;;;0.00;0.00;;;12.70;99.90;;;;;;5031111;28;20466;-72
2023/01/01 12:29:48;;;;;;;0.00;0.00;;;12.60;99.90;;;;;;4974026;28;20462;-72
2023/01/01 12:32:29;;;;;;;0.00;0.00;;;12.60;99.90;;;;;;5045549;28;20386;-73
2023/01/01 12:35:04;;;;;;;0.00;0.00;;;12.70;99.90;;;;;;5024846;28;20096;-73
2023/01/01 12:37:41;;;;;;;0.20;0.20;;;12.60;99.90;;;;;;5029633;28;20071;-72
2023/01/01 12:40:29;;;;;;;0.45;0.45;;;12.40;99.90;;;;;;5030368;28;20033;-72
2023/01/01 12:43:02;;;;;;;0.00;0.00;;;12.30;99.90;;;;;;5026776;28;20043;-72
2023/01/01 12:45:57;;;;;;;0.00;0.00;;;12.30;99.90;;;;;;5023953;28;20033;-72
2023/01/01 12:48:54;;;;;;;0.03;0.03;;;12.40;99.90;;;;;;5028926;28;20435;-72
2023/01/01 12:51:49;;;;;;;0.00;0.00;;;12.30;99.90;;;;;;5027805;28;20029;-73
2023/01/01 12:54:32;;;;;;;0.22;0.10;;;12.40;99.90;;;;;;5027474;28;20029;-73
2023/01/01 12:57:40;;;;;;;1.38;0.40;;;12.30;99.90;;;;;;5040495;28;20079;-72
2023/01/01 13:00:18;;;;;;;0.00;0.00;;;12.50;99.90;;;;;;5040991;28;20112;-72
2023/01/01 13:03:06;;;;;;;0.00;0.00;;;12.60;99.90;;;;;;5023115;28;20047;-72
2023/01/01 13:05:50;;;;;;;0.52;0.10;;;12.60;99.90;;;;;;5023490;28;20022;-72
2023/01/01 13:08:17;;;;;;;0.00;0.00;;;12.50;99.90;;;;;;5025540;28;20052;-73
2023/01/01 13:10:46;;;;;;;0.00;0.00;;;12.50;99.90;;;;;;5027621;28;20021;-72
2023/01/01 13:13:13;;;;;;;0.00;0.00;;;12.30;99.90;;;;;;5026733;28;20024;-72
2023/01/01 13:15:40;;;;;;;0.08;0.03;;;12.40;99.90;;;;;;5026028;28;20082;-72
2023/01/01 13:18:16;;;;;;;0.50;0.25;;;12.20;99.90;;;;;;5027532;28;20600;-71
2023/01/01 13:21:01;;;;;;;0.00;0.00;;;12.00;99.90;;;;;;5020516;28;20025;-72
2023/01/01 13:23:37;;;;;;;0.00;0.00;;;11.90;99.90;;;;;;5025427;28;20045;-72
2023/01/01 13:26:21;;;;;;;0.00;0.00;;;11.90;99.90;;;;;;5027449;28;20334;-72
2023/01/01 13:28:58;;;;;;;0.00;0.00;;;11.90;99.90;;;;;;5030566;28;20024;-71
2023/01/01 13:31:42;;;;;;;0.00;0.00;;;11.90;99.90;;;;;;5019240;28;20040;-72